Marionville, Missouri
Current Conditions -  °F | °C
As of 4:52 PM on Friday 28 Nov 2014 (Local Time) from KSGF Reporting Station
Clear Clear  
Wind Chill: 57°   Ceiling: Unl
Heat Index: 57°   Visibility: 10mi
Dew Point: 34°   Wind: 16mph
Humidity: 42%   Direction: 190°S
Pressure: 29.89"   Gusts: NA
Location:  37°N, 93.64°W
Report Text: KSGF 282252Z 19014KT 10SM CLR 14/01 A2989 RMK AO2 SLP123 T01390011
Loading
Personal Weather Stations






























Interactive Weather Map New forecast layout! Learn more

10-Day Weather Forecast

Advertisements
Track Severe Weather on mobile